sensor_id;sensor_type;location;lat;lon;timestamp;temperature;humidity
314;DHT22;143;51.634;7.112;2022-07-09T00:00:05;19.20;99.90
314;DHT22;143;51.634;7.112;2022-07-09T00:02:31;19.10;99.90
314;DHT22;143;51.634;7.112;2022-07-09T00:04:56;19.20;99.90
314;DHT22;143;51.634;7.112;2022-07-09T00:07:22;19.10;99.90
314;DHT22;143;51.634;7.112;2022-07-09T00:09:48;19.10;99.90
314;DHT22;143;51.634;7.112;2022-07-09T00:12:13;19.10;99.90
314;DHT22;143;51.634;7.112;2022-07-09T00:14:39;19.00;99.90
314;DHT22;143;51.634;7.112;2022-07-09T00:17:05;19.00;99.90
314;DHT22;143;51.634;7.112;2022-07-09T00:19:31;19.00;99.90
314;DHT22;143;51.634;7.112;2022-07-09T00:21:56;19.00;99.90
314;DHT22;143;51.634;7.112;2022-07-09T00:24:22;18.90;99.90
314;DHT22;143;51.634;7.112;2022-07-09T00:26:48;18.90;99.90
314;DHT22;143;51.634;7.112;2022-07-09T00:29:14;18.90;99.90
314;DHT22;143;51.634;7.112;2022-07-09T00:31:39;18.90;99.90
314;DHT22;143;51.634;7.112;2022-07-09T00:34:05;18.80;99.90
314;DHT22;143;51.634;7.112;2022-07-09T00:36:31;18.80;99.90
314;DHT22;143;51.634;7.112;2022-07-09T00:38:57;18.70;99.90
314;DHT22;143;51.634;7.112;2022-07-09T00:41:22;18.70;99.90
314;DHT22;143;51.634;7.112;2022-07-09T00:43:49;18.70;99.90
314;DHT22;143;51.634;7.112;2022-07-09T00:46:16;18.60;99.90
314;DHT22;143;51.634;7.112;2022-07-09T00:48:43;18.60;99.90
314;DHT22;143;51.634;7.112;2022-07-09T00:51:10;18.60;99.90
314;DHT22;143;51.634;7.112;2022-07-09T00:53:36;18.50;99.90
314;DHT22;143;51.634;7.112;2022-07-09T00:56:04;18.50;1.00
314;DHT22;143;51.634;7.112;2022-07-09T00:58:30;18.50;1.00
314;DHT22;143;51.634;7.112;2022-07-09T01:00:56;18.50;1.00
314;DHT22;143;51.634;7.112;2022-07-09T01:03:22;18.50;1.00
314;DHT22;143;51.634;7.112;2022-07-09T01:05:48;18.40;1.00
314;DHT22;143;51.634;7.112;2022-07-09T01:08:14;18.40;1.00
314;DHT22;143;51.634;7.112;2022-07-09T01:10:41;18.40;1.00
314;DHT22;143;51.634;7.112;2022-07-09T01:13:07;18.40;1.00
314;DHT22;143;51.634;7.112;2022-07-09T01:15:33;18.30;1.00
314;DHT22;143;51.634;7.112;2022-07-09T01:17:59;18.30;1.00
314;DHT22;143;51.634;7.112;2022-07-09T01:20:25;18.30;1.00
314;DHT22;143;51.634;7.112;2022-07-09T01:22:52;18.20;1.00
314;DHT22;143;51.634;7.112;2022-07-09T01:25:18;18.20;1.00
314;DHT22;143;51.634;7.112;2022-07-09T01:27:46;18.20;1.00
314;DHT22;143;51.634;7.112;2022-07-09T01:30:23;18.20;1.00
314;DHT22;143;51.634;7.112;2022-07-09T01:32:49;18.20;1.00
314;DHT22;143;51.634;7.112;2022-07-09T01:35:15;18.10;1.00
314;DHT22;143;51.634;7.112;2022-07-09T01:37:41;18.10;1.00
314;DHT22;143;51.634;7.112;2022-07-09T01:40:07;18.10;1.00
314;DHT22;143;51.634;7.112;2022-07-09T01:42:33;18.10;1.00
314;DHT22;143;51.634;7.112;2022-07-09T01:44:58;18.10;1.00
314;DHT22;143;51.634;7.112;2022-07-09T01:47:24;18.10;1.00
314;DHT22;143;51.634;7.112;2022-07-09T01:49:50;18.10;1.00
314;DHT22;143;51.634;7.112;2022-07-09T01:52:15;18.10;1.00
314;DHT22;143;51.634;7.112;2022-07-09T01:54:41;18.00;1.00
314;DHT22;143;51.634;7.112;2022-07-09T01:57:07;18.00;1.00
314;DHT22;143;51.634;7.112;2022-07-09T01:59:32;18.00;1.00
314;DHT22;143;51.634;7.112;2022-07-09T02:01:58;18.00;1.00
314;DHT22;143;51.634;7.112;2022-07-09T02:04:24;18.00;1.00
314;DHT22;143;51.634;7.112;2022-07-09T02:06:49;18.00;1.00
314;DHT22;143;51.634;7.112;2022-07-09T02:09:15;18.00;1.00
314;DHT22;143;51.634;7.112;2022-07-09T02:11:42;18.00;1.00
314;DHT22;143;51.634;7.112;2022-07-09T02:14:07;17.90;1.00
314;DHT22;143;51.634;7.112;2022-07-09T02:16:33;17.90;1.00
314;DHT22;143;51.634;7.112;2022-07-09T02:18:59;17.90;1.00
314;DHT22;143;51.634;7.112;2022-07-09T02:21:24;17.80;1.00
314;DHT22;143;51.634;7.112;2022-07-09T02:23:50;17.80;1.00
314;DHT22;143;51.634;7.112;2022-07-09T02:26:16;17.70;1.00
314;DHT22;143;51.634;7.112;2022-07-09T02:28:41;17.80;1.00
314;DHT22;143;51.634;7.112;2022-07-09T02:31:07;17.70;1.00
314;DHT22;143;51.634;7.112;2022-07-09T02:33:33;17.70;1.00
314;DHT22;143;51.634;7.112;2022-07-09T02:35:59;17.70;1.00
314;DHT22;143;51.634;7.112;2022-07-09T02:38:25;17.70;1.00
314;DHT22;143;51.634;7.112;2022-07-09T02:40:51;17.60;1.00
314;DHT22;143;51.634;7.112;2022-07-09T02:43:16;17.60;1.00
314;DHT22;143;51.634;7.112;2022-07-09T02:45:42;17.60;1.00
314;DHT22;143;51.634;7.112;2022-07-09T02:48:08;17.60;1.00
314;DHT22;143;51.634;7.112;2022-07-09T02:50:33;17.60;1.00
314;DHT22;143;51.634;7.112;2022-07-09T02:52:59;17.50;1.00
314;DHT22;143;51.634;7.112;2022-07-09T02:55:25;17.50;1.00
314;DHT22;143;51.634;7.112;2022-07-09T02:57:51;17.50;1.00
314;DHT22;143;51.634;7.112;2022-07-09T03:00:17;17.50;1.00
314;DHT22;143;51.634;7.112;2022-07-09T03:02:42;17.40;1.00
314;DHT22;143;51.634;7.112;2022-07-09T03:05:08;17.40;1.00
314;DHT22;143;51.634;7.112;2022-07-09T03:07:34;17.40;1.00
314;DHT22;143;51.634;7.112;2022-07-09T03:10:00;17.40;1.00
314;DHT22;143;51.634;7.112;2022-07-09T03:12:26;17.40;1.00
314;DHT22;143;51.634;7.112;2022-07-09T03:14:51;17.40;1.00
314;DHT22;143;51.634;7.112;2022-07-09T03:17:17;17.30;1.00
314;DHT22;143;51.634;7.112;2022-07-09T03:19:43;17.30;1.00
314;DHT22;143;51.634;7.112;2022-07-09T03:22:09;17.30;1.00
314;DHT22;143;51.634;7.112;2022-07-09T03:24:34;17.30;1.00
314;DHT22;143;51.634;7.112;2022-07-09T03:27:00;17.30;1.00
314;DHT22;143;51.634;7.112;2022-07-09T03:29:26;17.30;1.00
314;DHT22;143;51.634;7.112;2022-07-09T03:31:51;17.30;1.00
314;DHT22;143;51.634;7.112;2022-07-09T03:34:17;17.30;1.00
314;DHT22;143;51.634;7.112;2022-07-09T03:36:43;17.30;1.00
314;DHT22;143;51.634;7.112;2022-07-09T03:39:08;17.30;1.00
314;DHT22;143;51.634;7.112;2022-07-09T03:41:35;17.30;1.00
314;DHT22;143;51.634;7.112;2022-07-09T03:44:01;17.30;1.00
314;DHT22;143;51.634;7.112;2022-07-09T03:46:26;17.30;1.00
314;DHT22;143;51.634;7.112;2022-07-09T03:48:52;17.30;1.00
314;DHT22;143;51.634;7.112;2022-07-09T03:51:18;17.30;1.00
314;DHT22;143;51.634;7.112;2022-07-09T03:53:43;17.40;1.00
314;DHT22;143;51.634;7.112;2022-07-09T03:56:09;17.40;1.00
314;DHT22;143;51.634;7.112;2022-07-09T03:58:35;17.40;1.00
314;DHT22;143;51.634;7.112;2022-07-09T04:01:01;17.40;1.00
314;DHT22;143;51.634;7.112;2022-07-09T04:03:27;17.40;1.00
314;DHT22;143;51.634;7.112;2022-07-09T04:05:53;17.40;1.00
314;DHT22;143;51.634;7.112;2022-07-09T04:08:18;17.40;1.00
314;DHT22;143;51.634;7.112;2022-07-09T04:10:44;17.40;1.00
314;DHT22;143;51.634;7.112;2022-07-09T04:13:09;17.50;1.00
314;DHT22;143;51.634;7.112;2022-07-09T04:15:35;17.50;1.00
314;DHT22;143;51.634;7.112;2022-07-09T04:18:01;17.50;1.00
314;DHT22;143;51.634;7.112;2022-07-09T04:20:27;17.50;1.00
314;DHT22;143;51.634;7.112;2022-07-09T04:22:52;17.50;1.00
314;DHT22;143;51.634;7.112;2022-07-09T04:25:18;17.60;1.00
314;DHT22;143;51.634;7.112;2022-07-09T04:27:44;17.60;1.00
314;DHT22;143;51.634;7.112;2022-07-09T04:30:10;17.70;1.00
314;DHT22;143;51.634;7.112;2022-07-09T04:32:37;17.70;1.00
314;DHT22;143;51.634;7.112;2022-07-09T04:35:03;17.70;1.00
314;DHT22;143;51.634;7.112;2022-07-09T04:37:29;17.70;1.00
314;DHT22;143;51.634;7.112;2022-07-09T04:39:54;17.70;1.00
314;DHT22;143;51.634;7.112;2022-07-09T04:42:20;17.70;1.00
314;DHT22;143;51.634;7.112;2022-07-09T04:44:46;17.80;1.00
314;DHT22;143;51.634;7.112;2022-07-09T04:47:12;17.80;1.00
314;DHT22;143;51.634;7.112;2022-07-09T04:49:38;17.80;1.00
314;DHT22;143;51.634;7.112;2022-07-09T04:52:04;17.80;1.00
314;DHT22;143;51.634;7.112;2022-07-09T04:54:30;17.90;1.00
314;DHT22;143;51.634;7.112;2022-07-09T04:56:56;17.90;1.00
314;DHT22;143;51.634;7.112;2022-07-09T04:59:21;17.90;1.00
314;DHT22;143;51.634;7.112;2022-07-09T05:01:47;17.90;1.00
314;DHT22;143;51.634;7.112;2022-07-09T05:04:13;17.90;1.00
314;DHT22;143;51.634;7.112;2022-07-09T05:06:39;18.00;1.00
314;DHT22;143;51.634;7.112;2022-07-09T05:09:05;18.00;1.00
314;DHT22;143;51.634;7.112;2022-07-09T05:11:31;18.00;1.00
314;DHT22;143;51.634;7.112;2022-07-09T05:13:58;18.00;1.00
314;DHT22;143;51.634;7.112;2022-07-09T05:16:23;18.10;1.00
314;DHT22;143;51.634;7.112;2022-07-09T05:18:49;18.10;1.00
314;DHT22;143;51.634;7.112;2022-07-09T05:21:15;18.10;1.00
314;DHT22;143;51.634;7.112;2022-07-09T05:23:41;18.20;1.00
314;DHT22;143;51.634;7.112;2022-07-09T05:26:07;18.20;1.00
314;DHT22;143;51.634;7.112;2022-07-09T05:28:32;18.20;1.00
314;DHT22;143;51.634;7.112;2022-07-09T05:30:58;18.30;1.00
314;DHT22;143;51.634;7.112;2022-07-09T05:33:24;18.30;1.00
314;DHT22;143;51.634;7.112;2022-07-09T05:35:49;18.40;1.00
314;DHT22;143;51.634;7.112;2022-07-09T05:38:15;18.40;1.00
314;DHT22;143;51.634;7.112;2022-07-09T05:40:41;18.50;1.00
314;DHT22;143;51.634;7.112;2022-07-09T05:43:07;18.40;1.00
314;DHT22;143;51.634;7.112;2022-07-09T05:45:33;18.50;1.00
314;DHT22;143;51.634;7.112;2022-07-09T05:47:58;18.50;1.00
314;DHT22;143;51.634;7.112;2022-07-09T05:50:24;18.50;1.00
314;DHT22;143;51.634;7.112;2022-07-09T05:52:50;18.60;1.00
314;DHT22;143;51.634;7.112;2022-07-09T05:55:15;18.60;1.00
314;DHT22;143;51.634;7.112;2022-07-09T05:57:41;18.60;1.00
314;DHT22;143;51.634;7.112;2022-07-09T06:00:08;18.60;1.00
314;DHT22;143;51.634;7.112;2022-07-09T06:02:33;18.60;1.00
314;DHT22;143;51.634;7.112;2022-07-09T06:04:59;18.70;1.00
314;DHT22;143;51.634;7.112;2022-07-09T06:07:25;18.70;1.00
314;DHT22;143;51.634;7.112;2022-07-09T06:09:50;18.60;1.00
314;DHT22;143;51.634;7.112;2022-07-09T06:12:16;18.60;1.00
314;DHT22;143;51.634;7.112;2022-07-09T06:14:43;18.60;1.00
314;DHT22;143;51.634;7.112;2022-07-09T06:17:09;18.70;1.00
314;DHT22;143;51.634;7.112;2022-07-09T06:19:35;18.70;1.00
314;DHT22;143;51.634;7.112;2022-07-09T06:22:01;18.70;1.00
314;DHT22;143;51.634;7.112;2022-07-09T06:24:27;18.70;1.00
314;DHT22;143;51.634;7.112;2022-07-09T06:26:53;18.70;1.00
314;DHT22;143;51.634;7.112;2022-07-09T06:29:20;18.80;1.00
314;DHT22;143;51.634;7.112;2022-07-09T06:31:45;18.80;1.00
314;DHT22;143;51.634;7.112;2022-07-09T06:34:11;18.80;1.00
314;DHT22;143;51.634;7.112;2022-07-09T06:36:38;18.90;1.00
314;DHT22;143;51.634;7.112;2022-07-09T06:39:03;18.90;1.00
314;DHT22;143;51.634;7.112;2022-07-09T06:41:48;19.00;1.00
314;DHT22;143;51.634;7.112;2022-07-09T06:44:14;19.10;1.00
314;DHT22;143;51.634;7.112;2022-07-09T06:46:39;19.10;1.00
314;DHT22;143;51.634;7.112;2022-07-09T06:49:05;19.20;1.00
314;DHT22;143;51.634;7.112;2022-07-09T06:51:32;19.30;1.00
314;DHT22;143;51.634;7.112;2022-07-09T06:53:57;19.30;1.00
314;DHT22;143;51.634;7.112;2022-07-09T06:56:23;19.40;1.00
314;DHT22;143;51.634;7.112;2022-07-09T06:58:49;19.40;1.00
314;DHT22;143;51.634;7.112;2022-07-09T07:01:15;19.50;1.00
314;DHT22;143;51.634;7.112;2022-07-09T07:03:40;19.50;1.00
314;DHT22;143;51.634;7.112;2022-07-09T07:06:06;19.50;1.00
314;DHT22;143;51.634;7.112;2022-07-09T07:08:32;19.60;1.00
314;DHT22;143;51.634;7.112;2022-07-09T07:10:57;19.60;1.00
314;DHT22;143;51.634;7.112;2022-07-09T07:13:23;19.70;1.00
314;DHT22;143;51.634;7.112;2022-07-09T07:15:49;19.80;1.00
314;DHT22;143;51.634;7.112;2022-07-09T07:18:16;19.80;1.00
314;DHT22;143;51.634;7.112;2022-07-09T07:20:43;19.90;1.00
314;DHT22;143;51.634;7.112;2022-07-09T07:23:09;19.90;1.00
314;DHT22;143;51.634;7.112;2022-07-09T07:25:34;20.00;1.00
314;DHT22;143;51.634;7.112;2022-07-09T07:28:00;20.10;1.00
314;DHT22;143;51.634;7.112;2022-07-09T07:30:27;20.10;1.00
314;DHT22;143;51.634;7.112;2022-07-09T07:32:53;20.20;1.00
314;DHT22;143;51.634;7.112;2022-07-09T07:35:18;20.30;1.00
314;DHT22;143;51.634;7.112;2022-07-09T07:37:44;20.40;99.90
314;DHT22;143;51.634;7.112;2022-07-09T07:40:10;20.50;99.90
314;DHT22;143;51.634;7.112;2022-07-09T07:42:36;20.60;99.90
314;DHT22;143;51.634;7.112;2022-07-09T07:45:02;20.70;99.90
314;DHT22;143;51.634;7.112;2022-07-09T07:47:27;20.80;99.90
314;DHT22;143;51.634;7.112;2022-07-09T07:49:53;20.90;99.90
314;DHT22;143;51.634;7.112;2022-07-09T07:52:19;21.00;99.90
314;DHT22;143;51.634;7.112;2022-07-09T07:54:45;21.10;99.90
314;DHT22;143;51.634;7.112;2022-07-09T07:57:11;21.20;99.90
314;DHT22;143;51.634;7.112;2022-07-09T07:59:37;21.30;99.90
314;DHT22;143;51.634;7.112;2022-07-09T08:02:03;21.30;99.90
314;DHT22;143;51.634;7.112;2022-07-09T08:04:29;21.40;99.90
314;DHT22;143;51.634;7.112;2022-07-09T08:06:54;21.50;99.90
314;DHT22;143;51.634;7.112;2022-07-09T08:09:20;21.60;99.90
314;DHT22;143;51.634;7.112;2022-07-09T08:11:46;21.70;99.90
314;DHT22;143;51.634;7.112;2022-07-09T08:14:12;21.80;99.90
314;DHT22;143;51.634;7.112;2022-07-09T08:16:37;21.80;99.90
314;DHT22;143;51.634;7.112;2022-07-09T08:19:03;21.80;99.90
314;DHT22;143;51.634;7.112;2022-07-09T08:21:29;21.90;99.90
314;DHT22;143;51.634;7.112;2022-07-09T08:23:55;22.00;99.90
314;DHT22;143;51.634;7.112;2022-07-09T08:26:25;22.00;99.90
314;DHT22;143;51.634;7.112;2022-07-09T08:28:51;22.10;99.90
314;DHT22;143;51.634;7.112;2022-07-09T08:31:19;22.20;99.90
314;DHT22;143;51.634;7.112;2022-07-09T08:33:45;22.30;99.90
314;DHT22;143;51.634;7.112;2022-07-09T08:36:11;22.40;99.90
314;DHT22;143;51.634;7.112;2022-07-09T08:38:37;22.50;99.90
314;DHT22;143;51.634;7.112;2022-07-09T08:41:04;22.60;99.90
314;DHT22;143;51.634;7.112;2022-07-09T08:43:36;22.70;99.90
314;DHT22;143;51.634;7.112;2022-07-09T08:46:03;22.80;99.90
314;DHT22;143;51.634;7.112;2022-07-09T08:48:33;22.80;99.90
314;DHT22;143;51.634;7.112;2022-07-09T08:50:59;22.90;96.30
314;DHT22;143;51.634;7.112;2022-07-09T08:53:25;23.00;71.80
314;DHT22;143;51.634;7.112;2022-07-09T08:55:54;23.10;37.70
314;DHT22;143;51.634;7.112;2022-07-09T08:58:20;23.10;1.00
314;DHT22;143;51.634;7.112;2022-07-09T09:00:48;23.10;1.00
314;DHT22;143;51.634;7.112;2022-07-09T09:03:15;23.10;1.00
314;DHT22;143;51.634;7.112;2022-07-09T09:05:40;23.10;1.00
314;DHT22;143;51.634;7.112;2022-07-09T09:08:20;23.20;1.00
314;DHT22;143;51.634;7.112;2022-07-09T09:10:47;23.30;1.00
314;DHT22;143;51.634;7.112;2022-07-09T09:13:15;23.40;1.00
314;DHT22;143;51.634;7.112;2022-07-09T09:15:44;23.50;1.00
314;DHT22;143;51.634;7.112;2022-07-09T09:18:10;23.70;1.00
314;DHT22;143;51.634;7.112;2022-07-09T09:20:36;23.70;1.00
314;DHT22;143;51.634;7.112;2022-07-09T09:23:03;23.50;1.00
314;DHT22;143;51.634;7.112;2022-07-09T09:25:30;23.40;1.00
314;DHT22;143;51.634;7.112;2022-07-09T09:27:58;23.30;1.00
314;DHT22;143;51.634;7.112;2022-07-09T09:30:25;23.30;1.00
314;DHT22;143;51.634;7.112;2022-07-09T09:35:25;23.30;1.00
314;DHT22;143;51.634;7.112;2022-07-09T09:37:51;23.30;1.00
314;DHT22;143;51.634;7.112;2022-07-09T09:40:17;23.40;1.00
314;DHT22;143;51.634;7.112;2022-07-09T09:42:45;23.40;1.00
314;DHT22;143;51.634;7.112;2022-07-09T09:45:15;23.40;1.00
314;DHT22;143;51.634;7.112;2022-07-09T09:47:51;23.30;1.00
314;DHT22;143;51.634;7.112;2022-07-09T09:50:19;23.30;1.00
314;DHT22;143;51.634;7.112;2022-07-09T09:52:52;23.30;1.00
314;DHT22;143;51.634;7.112;2022-07-09T09:55:19;23.40;1.00
314;DHT22;143;51.634;7.112;2022-07-09T09:57:46;23.50;1.00
314;DHT22;143;51.634;7.112;2022-07-09T10:00:13;23.60;1.00
314;DHT22;143;51.634;7.112;2022-07-09T10:02:45;23.70;1.00
314;DHT22;143;51.634;7.112;2022-07-09T10:05:10;23.80;1.00
314;DHT22;143;51.634;7.112;2022-07-09T10:07:36;23.90;1.00
314;DHT22;143;51.634;7.112;2022-07-09T10:10:06;23.90;1.00
314;DHT22;143;51.634;7.112;2022-07-09T10:12:34;24.00;1.00
314;DHT22;143;51.634;7.112;2022-07-09T10:15:00;24.10;1.00
314;DHT22;143;51.634;7.112;2022-07-09T10:17:26;24.20;1.00
314;DHT22;143;51.634;7.112;2022-07-09T10:19:57;24.20;1.00
314;DHT22;143;51.634;7.112;2022-07-09T10:22:36;24.10;1.00
314;DHT22;143;51.634;7.112;2022-07-09T10:25:03;24.10;1.00
314;DHT22;143;51.634;7.112;2022-07-09T10:27:29;24.00;1.00
314;DHT22;143;51.634;7.112;2022-07-09T10:29:59;24.10;1.00
314;DHT22;143;51.634;7.112;2022-07-09T10:32:29;24.10;1.00
314;DHT22;143;51.634;7.112;2022-07-09T10:35:04;24.10;1.00
314;DHT22;143;51.634;7.112;2022-07-09T10:40:19;24.10;1.00
314;DHT22;143;51.634;7.112;2022-07-09T10:42:58;24.10;1.00
314;DHT22;143;51.634;7.112;2022-07-09T10:45:28;24.10;1.00
314;DHT22;143;51.634;7.112;2022-07-09T10:48:01;24.10;1.00
314;DHT22;143;51.634;7.112;2022-07-09T10:50:29;24.10;1.00
314;DHT22;143;51.634;7.112;2022-07-09T10:52:56;24.10;1.00
314;DHT22;143;51.634;7.112;2022-07-09T10:55:24;24.10;1.00
314;DHT22;143;51.634;7.112;2022-07-09T10:57:50;24.10;1.00
314;DHT22;143;51.634;7.112;2022-07-09T11:00:18;24.20;1.00
314;DHT22;143;51.634;7.112;2022-07-09T11:03:10;24.30;1.00
314;DHT22;143;51.634;7.112;2022-07-09T11:05:45;24.40;1.00
314;DHT22;143;51.634;7.112;2022-07-09T11:08:11;24.60;1.00
314;DHT22;143;51.634;7.112;2022-07-09T11:10:38;24.70;1.00
314;DHT22;143;51.634;7.112;2022-07-09T11:13:06;24.70;1.00
314;DHT22;143;51.634;7.112;2022-07-09T11:15:33;24.80;1.00
314;DHT22;143;51.634;7.112;2022-07-09T11:18:08;24.80;1.00
314;DHT22;143;51.634;7.112;2022-07-09T11:20:44;24.90;1.00
314;DHT22;143;51.634;7.112;2022-07-09T11:23:14;25.00;1.00
314;DHT22;143;51.634;7.112;2022-07-09T11:25:40;25.10;1.00
314;DHT22;143;51.634;7.112;2022-07-09T11:28:07;25.20;1.00
314;DHT22;143;51.634;7.112;2022-07-09T11:30:33;25.20;1.00
314;DHT22;143;51.634;7.112;2022-07-09T11:32:59;25.30;1.00
314;DHT22;143;51.634;7.112;2022-07-09T11:35:35;25.30;1.00
314;DHT22;143;51.634;7.112;2022-07-09T11:38:03;25.20;1.00
314;DHT22;143;51.634;7.112;2022-07-09T11:40:30;25.20;1.00
314;DHT22;143;51.634;7.112;2022-07-09T11:42:56;25.10;1.00
314;DHT22;143;51.634;7.112;2022-07-09T11:45:26;25.00;1.00
314;DHT22;143;51.634;7.112;2022-07-09T11:48:12;24.90;1.00
314;DHT22;143;51.634;7.112;2022-07-09T11:50:42;24.70;1.00
314;DHT22;143;51.634;7.112;2022-07-09T11:53:22;24.60;1.00
314;DHT22;143;51.634;7.112;2022-07-09T11:56:03;24.50;1.00
314;DHT22;143;51.634;7.112;2022-07-09T11:58:30;24.40;1.00
314;DHT22;143;51.634;7.112;2022-07-09T12:00:56;24.40;1.00
314;DHT22;143;51.634;7.112;2022-07-09T12:03:26;24.30;1.00
314;DHT22;143;51.634;7.112;2022-07-09T12:05:53;24.20;1.00
314;DHT22;143;51.634;7.112;2022-07-09T12:08:30;24.20;1.00
314;DHT22;143;51.634;7.112;2022-07-09T12:10:57;24.10;1.00
314;DHT22;143;51.634;7.112;2022-07-09T12:13:23;24.10;1.00
314;DHT22;143;51.634;7.112;2022-07-09T12:15:48;24.00;1.00
314;DHT22;143;51.634;7.112;2022-07-09T12:18:14;24.00;37.90
314;DHT22;143;51.634;7.112;2022-07-09T12:20:40;24.00;81.90
314;DHT22;143;51.634;7.112;2022-07-09T12:23:06;23.90;99.90
314;DHT22;143;51.634;7.112;2022-07-09T12:25:32;23.90;99.90
314;DHT22;143;51.634;7.112;2022-07-09T12:27:57;23.80;99.90
314;DHT22;143;51.634;7.112;2022-07-09T12:30:23;23.80;99.90
314;DHT22;143;51.634;7.112;2022-07-09T12:32:49;23.70;99.90
314;DHT22;143;51.634;7.112;2022-07-09T12:35:15;23.70;99.90
314;DHT22;143;51.634;7.112;2022-07-09T12:37:42;23.50;99.90
314;DHT22;143;51.634;7.112;2022-07-09T12:40:09;23.50;99.90
314;DHT22;143;51.634;7.112;2022-07-09T12:42:36;23.40;99.90
314;DHT22;143;51.634;7.112;2022-07-09T12:45:02;23.30;99.90
314;DHT22;143;51.634;7.112;2022-07-09T12:47:29;23.10;99.90
314;DHT22;143;51.634;7.112;2022-07-09T12:49:54;23.00;99.90
314;DHT22;143;51.634;7.112;2022-07-09T12:52:20;22.90;99.90
314;DHT22;143;51.634;7.112;2022-07-09T12:54:46;22.80;99.90
314;DHT22;143;51.634;7.112;2022-07-09T12:57:12;22.60;99.90
314;DHT22;143;51.634;7.112;2022-07-09T12:59:38;22.60;99.90
314;DHT22;143;51.634;7.112;2022-07-09T13:02:05;22.40;99.90
314;DHT22;143;51.634;7.112;2022-07-09T13:04:31;22.40;99.90
314;DHT22;143;51.634;7.112;2022-07-09T13:06:57;22.30;99.90
314;DHT22;143;51.634;7.112;2022-07-09T13:09:22;22.20;99.90
314;DHT22;143;51.634;7.112;2022-07-09T13:11:48;22.20;99.90
314;DHT22;143;51.634;7.112;2022-07-09T13:14:15;22.10;99.90
314;DHT22;143;51.634;7.112;2022-07-09T13:16:40;22.10;1.00
314;DHT22;143;51.634;7.112;2022-07-09T13:19:06;22.10;1.00
314;DHT22;143;51.634;7.112;2022-07-09T13:21:32;22.00;1.00
314;DHT22;143;51.634;7.112;2022-07-09T13:23:59;22.10;1.00
314;DHT22;143;51.634;7.112;2022-07-09T13:26:25;22.20;1.00
314;DHT22;143;51.634;7.112;2022-07-09T13:28:51;22.30;1.00
314;DHT22;143;51.634;7.112;2022-07-09T13:31:17;22.50;1.00
314;DHT22;143;51.634;7.112;2022-07-09T13:33:43;22.60;1.00
314;DHT22;143;51.634;7.112;2022-07-09T13:36:09;22.80;1.00
314;DHT22;143;51.634;7.112;2022-07-09T13:38:35;23.00;1.00
314;DHT22;143;51.634;7.112;2022-07-09T13:41:02;23.20;1.00
314;DHT22;143;51.634;7.112;2022-07-09T13:43:28;23.40;1.00
314;DHT22;143;51.634;7.112;2022-07-09T13:45:58;23.70;1.00
314;DHT22;143;51.634;7.112;2022-07-09T13:48:25;23.90;1.00
314;DHT22;143;51.634;7.112;2022-07-09T13:50:51;24.00;1.00
314;DHT22;143;51.634;7.112;2022-07-09T13:53:17;24.10;1.00
314;DHT22;143;51.634;7.112;2022-07-09T13:55:44;24.30;99.90
314;DHT22;143;51.634;7.112;2022-07-09T13:58:10;24.40;99.90
314;DHT22;143;51.634;7.112;2022-07-09T14:00:36;24.50;99.90
314;DHT22;143;51.634;7.112;2022-07-09T14:03:02;24.50;99.90
314;DHT22;143;51.634;7.112;2022-07-09T14:05:28;24.40;99.90
314;DHT22;143;51.634;7.112;2022-07-09T14:07:54;24.50;99.90
314;DHT22;143;51.634;7.112;2022-07-09T14:10:20;24.50;99.90
314;DHT22;143;51.634;7.112;2022-07-09T14:12:45;24.50;99.90
314;DHT22;143;51.634;7.112;2022-07-09T14:15:12;24.50;99.90
314;DHT22;143;51.634;7.112;2022-07-09T14:17:38;24.60;99.90
314;DHT22;143;51.634;7.112;2022-07-09T14:20:05;24.60;67.30
314;DHT22;143;51.634;7.112;2022-07-09T14:22:32;24.70;16.20
314;DHT22;143;51.634;7.112;2022-07-09T14:24:57;24.80;1.00
314;DHT22;143;51.634;7.112;2022-07-09T14:27:23;24.80;1.00
314;DHT22;143;51.634;7.112;2022-07-09T14:29:49;24.80;1.00
314;DHT22;143;51.634;7.112;2022-07-09T14:32:15;24.80;1.00
314;DHT22;143;51.634;7.112;2022-07-09T14:34:40;24.80;1.00
314;DHT22;143;51.634;7.112;2022-07-09T14:37:06;24.90;1.00
314;DHT22;143;51.634;7.112;2022-07-09T14:39:32;24.90;1.00
314;DHT22;143;51.634;7.112;2022-07-09T14:41:58;24.90;1.00
314;DHT22;143;51.634;7.112;2022-07-09T14:44:24;24.90;1.00
314;DHT22;143;51.634;7.112;2022-07-09T14:46:49;24.90;1.00
314;DHT22;143;51.634;7.112;2022-07-09T14:49:15;24.90;1.00
314;DHT22;143;51.634;7.112;2022-07-09T14:51:42;24.90;1.00
314;DHT22;143;51.634;7.112;2022-07-09T14:54:08;24.90;1.00
314;DHT22;143;51.634;7.112;2022-07-09T14:56:34;24.90;1.00
314;DHT22;143;51.634;7.112;2022-07-09T14:58:59;24.90;1.00
314;DHT22;143;51.634;7.112;2022-07-09T15:01:25;25.00;1.00
314;DHT22;143;51.634;7.112;2022-07-09T15:03:51;25.00;1.00
314;DHT22;143;51.634;7.112;2022-07-09T15:06:16;25.10;1.00
314;DHT22;143;51.634;7.112;2022-07-09T15:08:43;25.10;1.00
314;DHT22;143;51.634;7.112;2022-07-09T15:11:10;25.20;1.00
314;DHT22;143;51.634;7.112;2022-07-09T15:13:36;25.20;1.00
314;DHT22;143;51.634;7.112;2022-07-09T15:16:03;25.20;1.00
314;DHT22;143;51.634;7.112;2022-07-09T15:18:28;25.20;1.00
314;DHT22;143;51.634;7.112;2022-07-09T15:20:54;25.20;1.00
314;DHT22;143;51.634;7.112;2022-07-09T15:23:20;25.20;1.00
314;DHT22;143;51.634;7.112;2022-07-09T15:25:46;25.30;1.00
314;DHT22;143;51.634;7.112;2022-07-09T15:28:12;25.40;1.00
314;DHT22;143;51.634;7.112;2022-07-09T15:30:39;25.40;1.00
314;DHT22;143;51.634;7.112;2022-07-09T15:33:05;25.50;1.00
314;DHT22;143;51.634;7.112;2022-07-09T15:35:31;25.50;1.00
314;DHT22;143;51.634;7.112;2022-07-09T15:37:56;25.60;1.00
314;DHT22;143;51.634;7.112;2022-07-09T15:40:22;25.60;1.00
314;DHT22;143;51.634;7.112;2022-07-09T15:42:49;25.60;1.00
314;DHT22;143;51.634;7.112;2022-07-09T15:45:15;25.50;1.00
314;DHT22;143;51.634;7.112;2022-07-09T15:47:43;25.50;1.00
314;DHT22;143;51.634;7.112;2022-07-09T15:50:09;25.40;1.00
314;DHT22;143;51.634;7.112;2022-07-09T15:52:36;25.40;1.00
314;DHT22;143;51.634;7.112;2022-07-09T15:55:06;25.40;1.00
314;DHT22;143;51.634;7.112;2022-07-09T15:57:32;25.40;1.00
314;DHT22;143;51.634;7.112;2022-07-09T15:59:59;25.40;1.00
314;DHT22;143;51.634;7.112;2022-07-09T16:02:25;25.30;1.00
314;DHT22;143;51.634;7.112;2022-07-09T16:04:50;25.30;1.00
314;DHT22;143;51.634;7.112;2022-07-09T16:07:16;25.30;1.00
314;DHT22;143;51.634;7.112;2022-07-09T16:09:42;25.30;1.00
314;DHT22;143;51.634;7.112;2022-07-09T16:12:07;25.30;1.00
314;DHT22;143;51.634;7.112;2022-07-09T16:14:51;25.30;1.00
314;DHT22;143;51.634;7.112;2022-07-09T16:17:17;25.30;1.00
314;DHT22;143;51.634;7.112;2022-07-09T16:19:44;25.30;1.00
314;DHT22;143;51.634;7.112;2022-07-09T16:22:10;25.20;1.00
314;DHT22;143;51.634;7.112;2022-07-09T16:24:36;25.20;1.00
314;DHT22;143;51.634;7.112;2022-07-09T16:27:02;25.10;1.00
314;DHT22;143;51.634;7.112;2022-07-09T16:29:27;25.10;1.00
314;DHT22;143;51.634;7.112;2022-07-09T16:31:53;24.90;1.00
314;DHT22;143;51.634;7.112;2022-07-09T16:34:19;24.90;1.00
314;DHT22;143;51.634;7.112;2022-07-09T16:36:45;24.80;1.00
314;DHT22;143;51.634;7.112;2022-07-09T16:39:10;24.70;1.00
314;DHT22;143;51.634;7.112;2022-07-09T16:41:36;24.60;1.00
314;DHT22;143;51.634;7.112;2022-07-09T16:44:02;24.50;1.00
314;DHT22;143;51.634;7.112;2022-07-09T16:46:28;24.50;1.00
314;DHT22;143;51.634;7.112;2022-07-09T16:48:54;24.40;1.00